Time;durP1;ratioP1;P1;durP2;ratioP2;P2;SDS_P1;SDS_P2;PMS_P1;PMS_P2;Temp;Humidity;BMP_temperature;BMP_pressure;BME280_temperature;BME280_humidity;BME280_pressure;Samples;Min_cycle;Max_cycle;Signal;HPM_P1;HPM_P2
2023/12/25 00:00:29;;;;;;;;;;;;;;;10.90;100.00;100460.50;5016418;28;20389;-80
2023/12/25 00:02:55;;;;;;;;;;;;;;;10.89;100.00;100464.03;5015270;28;19975;-79
2023/12/25 00:05:21;;;;;;;;;;;;;;;10.84;100.00;100468.47;5014604;28;20308;-77
2023/12/25 00:07:46;;;;;;;;;;;;;;;10.84;100.00;100463.22;4998661;28;19917;-77
2023/12/25 00:10:11;;;;;;;;;;;;;;;10.83;100.00;100464.13;5013650;28;19921;-79
2023/12/25 00:12:37;;;;;;;;;;;;;;;10.79;100.00;100465.94;4995212;28;19926;-78
2023/12/25 00:15:03;;;;;;;;;;;;;;;10.79;100.00;100467.69;4998378;28;20443;-78
2023/12/25 00:17:30;;;;;;;;;;;;;;;10.79;100.00;100467.69;4998498;28;20060;-77
2023/12/25 00:19:56;;;;;;;;;;;;;;;10.73;100.00;100464.31;5013972;28;19925;-78
2023/12/25 00:22:21;;;;;;;;;;;;;;;10.73;100.00;100461.69;4998386;28;19940;-77
2023/12/25 00:24:47;;;;;;;;;;;;;;;10.73;100.00;100461.69;5013635;28;20487;-77
2023/12/25 00:27:12;;;;;;;;;;;;;;;10.74;100.00;100452.06;4997941;28;20369;-76
2023/12/25 00:29:38;;;;;;;;;;;;;;;10.59;100.00;100440.09;4998340;28;19929;-78
2023/12/25 00:32:04;;;;;;;;;;;;;;;10.68;100.00;100439.06;4998340;28;20369;-77
2023/12/25 00:34:29;;;;;;;;;;;;;;;10.68;100.00;100439.06;4997202;28;19978;-77
2023/12/25 00:36:54;;;;;;;;;;;;;;;10.65;100.00;100440.00;4997905;28;19921;-79
2023/12/25 00:39:20;;;;;;;;;;;;;;;10.67;100.00;100447.81;4997685;28;19924;-75
2023/12/25 00:41:45;;;;;;;;;;;;;;;10.64;100.00;100447.88;4998301;28;19975;-77
2023/12/25 00:44:11;;;;;;;;;;;;;;;10.69;100.00;100446.91;5031689;28;19932;-79
2023/12/25 00:46:37;;;;;;;;;;;;;;;10.68;100.00;100458.28;4997691;28;19921;-77
2023/12/25 00:49:03;;;;;;;;;;;;;;;10.69;100.00;100457.38;5013922;28;20353;-77
2023/12/25 00:51:28;;;;;;;;;;;;;;;10.69;100.00;100452.16;5014785;28;19928;-79
2023/12/25 00:53:55;;;;;;;;;;;;;;;10.72;100.00;100469.56;4997242;28;20327;-77
2023/12/25 00:56:21;;;;;;;;;;;;;;;10.70;100.00;100469.59;4997960;28;19921;-77
2023/12/25 00:58:46;;;;;;;;;;;;;;;10.73;100.00;100464.31;5014140;28;20031;-77
2023/12/25 01:01:14;;;;;;;;;;;;;;;10.76;100.00;100473.88;5031188;28;19928;-76
2023/12/25 01:03:41;;;;;;;;;;;;;;;10.78;100.00;100476.47;4990188;28;19929;-76
2023/12/25 01:06:06;;;;;;;;;;;;;;;10.72;100.00;100480.91;5010991;28;19924;-77
2023/12/25 01:08:32;;;;;;;;;;;;;;;10.73;100.00;100493.13;4993992;28;19918;-77
2023/12/25 01:10:57;;;;;;;;;;;;;;;10.78;100.00;100493.03;5011443;28;19922;-78
2023/12/25 01:13:23;;;;;;;;;;;;;;;10.84;100.00;100497.31;5022016;28;19917;-78
2023/12/25 01:15:49;;;;;;;;;;;;;;;10.82;100.00;100485.97;4997204;28;20361;-77
2023/12/25 01:18:14;;;;;;;;;;;;;;;10.78;100.00;100474.69;4997289;28;19924;-78
2023/12/25 01:20:40;;;;;;;;;;;;;;;10.79;100.00;100481.69;5018096;28;19964;-77
2023/12/25 01:23:05;;;;;;;;;;;;;;;10.81;100.00;100492.13;5013077;28;19921;-78
2023/12/25 01:25:30;;;;;;;;;;;;;;;10.77;100.00;100495.69;4994275;28;19925;-77
2023/12/25 01:27:56;;;;;;;;;;;;;;;10.81;100.00;100498.22;4994692;28;19922;-78
2023/12/25 01:30:21;;;;;;;;;;;;;;;10.77;100.00;100495.69;5009068;28;19960;-78
2023/12/25 01:32:50;;;;;;;;;;;;;;;10.78;100.00;100497.44;4985841;28;19933;-78
2023/12/25 01:35:15;;;;;;;;;;;;;;;10.81;100.00;100503.47;5000301;28;19917;-78
2023/12/25 01:37:41;;;;;;;;;;;;;;;10.84;100.00;100502.56;5010674;28;19975;-77
2023/12/25 01:40:06;;;;;;;;;;;;;;;10.80;100.00;100501.72;5002426;28;20356;-76
2023/12/25 01:42:32;;;;;;;;;;;;;;;10.85;100.00;100509.53;5003226;28;20321;-78
2023/12/25 01:44:57;;;;;;;;;;;;;;;10.85;100.00;100506.91;5013210;28;20384;-77
2023/12/25 01:47:22;;;;;;;;;;;;;;;10.87;100.00;100499.88;4997975;28;20305;-77
2023/12/25 01:49:48;;;;;;;;;;;;;;;10.89;100.00;100495.47;5010636;28;19921;-77
2023/12/25 01:52:14;;;;;;;;;;;;;;;10.88;100.00;100499.00;5013926;28;19929;-77
2023/12/25 01:54:39;;;;;;;;;;;;;;;10.90;100.00;100505.06;5013988;28;19921;-77
2023/12/25 01:57:05;;;;;;;;;;;;;;;10.91;100.00;100505.03;5001177;28;20044;-78
2023/12/25 01:59:30;;;;;;;;;;;;;;;10.87;100.00;100507.72;5017232;28;19961;-77
2023/12/25 02:01:57;;;;;;;;;;;;;;;10.86;100.00;100501.63;5020810;28;19979;-77
2023/12/25 02:04:22;;;;;;;;;;;;;;;10.85;100.00;100510.38;5000782;28;19979;-78
2023/12/25 02:06:50;;;;;;;;;;;;;;;10.84;100.00;100494.69;5001057;28;19956;-78
2023/12/25 02:09:16;;;;;;;;;;;;;;;10.83;100.00;100500.81;4997481;28;19932;-77
2023/12/25 02:11:41;;;;;;;;;;;;;;;10.91;100.00;100491.91;5007978;28;20019;-77
2023/12/25 02:14:07;;;;;;;;;;;;;;;10.88;100.00;100515.56;5002014;28;19925;-77
2023/12/25 02:16:33;;;;;;;;;;;;;;;10.91;100.00;100509.41;5016990;28;19963;-77
2023/12/25 02:18:58;;;;;;;;;;;;;;;10.94;100.00;100521.59;5001434;28;19925;-76
2023/12/25 02:21:24;;;;;;;;;;;;;;;10.95;100.00;100510.19;4997034;28;20066;-77
2023/12/25 02:23:52;;;;;;;;;;;;;;;10.94;100.00;100524.22;5025759;28;20306;-77
2023/12/25 02:26:18;;;;;;;;;;;;;;;10.93;100.00;100518.09;5014026;28;20245;-78
2023/12/25 02:28:44;;;;;;;;;;;;;;;10.89;100.00;100529.56;5017001;28;20357;-77
2023/12/25 02:31:10;;;;;;;;;;;;;;;10.90;100.00;100528.66;5016602;28;19940;-77
2023/12/25 02:33:37;;;;;;;;;;;;;;;10.93;100.00;100528.59;5023332;28;19921;-77
2023/12/25 02:36:04;;;;;;;;;;;;;;;10.96;100.00;100522.44;4984376;28;20095;-80
2023/12/25 02:38:29;;;;;;;;;;;;;;;10.98;100.00;100539.88;5025920;28;19952;-76
2023/12/25 02:40:55;;;;;;;;;;;;;;;11.02;100.00;100522.31;5016806;28;20014;-77
2023/12/25 02:43:20;;;;;;;;;;;;;;;10.99;100.00;100523.25;5004734;28;19959;-78
2023/12/25 02:45:46;;;;;;;;;;;;;;;11.06;100.00;100529.22;4993306;28;19924;-77
2023/12/25 02:48:11;;;;;;;;;;;;;;;11.04;100.00;100539.75;5010144;28;19931;-77
2023/12/25 02:50:36;;;;;;;;;;;;;;;11.04;100.00;100536.25;5003008;28;19921;-77
2023/12/25 02:53:03;;;;;;;;;;;;;;;11.05;100.00;100531.00;4999911;28;20430;-77
2023/12/25 02:55:29;;;;;;;;;;;;;;;11.09;100.00;100532.66;5000080;28;20361;-78
2023/12/25 02:57:54;;;;;;;;;;;;;;;11.07;100.00;100541.44;5015755;28;19920;-77
2023/12/25 03:00:20;;;;;;;;;;;;;;;11.06;100.00;100540.59;4996421;28;19931;-78
2023/12/25 03:02:45;;;;;;;;;;;;;;;11.11;100.00;100544.91;5003973;28;20004;-77
2023/12/25 03:05:10;;;;;;;;;;;;;;;11.09;100.00;100550.13;4995848;28;20371;-77
2023/12/25 03:07:36;;;;;;;;;;;;;;;11.09;100.00;100543.16;5016395;28;19956;-76
2023/12/25 03:10:01;;;;;;;;;;;;;;;11.08;100.00;100546.66;4999221;28;19921;-77
2023/12/25 03:12:26;;;;;;;;;;;;;;;11.10;100.00;100546.63;5033971;28;19983;-77
2023/12/25 03:14:52;;;;;;;;;;;;;;;11.11;100.00;100547.53;5016757;28;19917;-77
2023/12/25 03:17:17;;;;;;;;;;;;;;;11.16;100.00;100540.41;5023804;28;19921;-77
2023/12/25 03:19:42;;;;;;;;;;;;;;;11.11;100.00;100537.88;5015085;28;19970;-77
2023/12/25 03:22:08;;;;;;;;;;;;;;;11.16;100.00;100543.03;5033901;28;19913;-77
2023/12/25 03:24:33;;;;;;;;;;;;;;;11.12;100.00;100539.63;5032905;28;20365;-77
2023/12/25 03:26:58;;;;;;;;;;;;;;;11.16;100.00;100537.78;5012532;28;20282;-76
2023/12/25 03:29:24;;;;;;;;;;;;;;;11.12;100.00;100547.50;5015464;28;20372;-77
2023/12/25 03:31:49;;;;;;;;;;;;;;;11.11;100.00;100543.13;5018511;28;19963;-77
2023/12/25 03:34:18;;;;;;;;;;;;;;;11.12;100.00;100557.97;5014704;28;19917;-77
2023/12/25 03:36:43;;;;;;;;;;;;;;;11.15;100.00;100549.16;5000087;28;19983;-77
2023/12/25 03:39:09;;;;;;;;;;;;;;;11.10;100.00;100541.38;4999343;28;20366;-76
2023/12/25 03:41:35;;;;;;;;;;;;;;;11.14;100.00;100550.94;4993152;28;20028;-77
2023/12/25 03:44:00;;;;;;;;;;;;;;;11.10;100.00;100557.13;4998782;28;20043;-76
2023/12/25 03:46:25;;;;;;;;;;;;;;;11.12;100.00;100559.72;4999317;28;19917;-77
2023/12/25 03:48:51;;;;;;;;;;;;;;;11.12;100.00;100555.34;5032285;28;19925;-77
2023/12/25 03:51:16;;;;;;;;;;;;;;;11.14;100.00;100561.41;5002864;28;19924;-77
2023/12/25 03:53:44;;;;;;;;;;;;;;;11.13;100.00;100562.31;5010080;28;19922;-78
2023/12/25 03:56:09;;;;;;;;;;;;;;;11.13;100.00;100561.44;4999266;28;19955;-76
2023/12/25 03:58:35;;;;;;;;;;;;;;;11.13;100.00;100550.97;4999056;28;19925;-78
2023/12/25 04:01:00;;;;;;;;;;;;;;;11.12;100.00;100564.97;5017995;28;20024;-76
2023/12/25 04:03:26;;;;;;;;;;;;;;;11.11;100.00;100569.34;4989043;28;19961;-77
2023/12/25 04:05:51;;;;;;;;;;;;;;;11.13;100.00;100572.78;5015921;28;20147;-79
2023/12/25 04:08:17;;;;;;;;;;;;;;;11.09;100.00;100561.50;4998760;28;20574;-78
2023/12/25 04:10:43;;;;;;;;;;;;;;;11.07;100.00;100558.03;5017266;28;19924;-79
2023/12/25 04:13:08;;;;;;;;;;;;;;;11.07;100.00;100552.78;4998535;28;19917;-77
2023/12/25 04:15:33;;;;;;;;;;;;;;;11.07;100.00;100557.19;5004301;28;20145;-76
2023/12/25 04:17:58;;;;;;;;;;;;;;;11.04;100.00;100558.09;5025594;28;20581;-78
2023/12/25 04:20:24;;;;;;;;;;;;;;;11.01;100.00;100558.16;5001869;28;20377;-77
2023/12/25 04:22:49;;;;;;;;;;;;;;;10.99;100.00;100552.09;5015556;28;19923;-76
2023/12/25 04:25:15;;;;;;;;;;;;;;;10.95;100.00;100553.03;5010024;28;19931;-77
2023/12/25 04:27:40;;;;;;;;;;;;;;;10.91;100.00;100540.88;5009250;28;20435;-77
2023/12/25 04:30:06;;;;;;;;;;;;;;;10.90;100.00;100541.75;5003349;28;19927;-77
2023/12/25 04:32:33;;;;;;;;;;;;;;;10.92;100.00;100545.22;5024364;28;19918;-77
2023/12/25 04:34:59;;;;;;;;;;;;;;;10.88;100.00;100539.16;4979831;28;20294;-77
2023/12/25 04:37:24;;;;;;;;;;;;;;;10.87;100.00;100541.81;5014624;28;19975;-78
2023/12/25 04:39:51;;;;;;;;;;;;;;;10.88;100.00;100538.31;4996917;28;19975;-77
2023/12/25 04:42:17;;;;;;;;;;;;;;;10.88;100.00;100544.41;4996269;28;19964;-77
2023/12/25 04:44:43;;;;;;;;;;;;;;;10.84;100.00;100544.50;4988682;28;19925;-76
2023/12/25 04:47:08;;;;;;;;;;;;;;;10.87;100.00;100554.91;5012520;28;20336;-77
2023/12/25 04:49:33;;;;;;;;;;;;;;;10.83;100.00;100541.03;4997569;28;19957;-77
2023/12/25 04:51:58;;;;;;;;;;;;;;;10.84;100.00;100541.88;4999439;28;19918;-77
2023/12/25 04:54:24;;;;;;;;;;;;;;;10.81;100.00;100534.06;5010086;28;19968;-78
2023/12/25 04:56:52;;;;;;;;;;;;;;;10.79;100.00;100531.47;4978188;28;19983;-78
2023/12/25 04:59:20;;;;;;;;;;;;;;;10.75;100.00;100533.28;5003787;28;19914;-77
2023/12/25 05:01:48;;;;;;;;;;;;;;;10.74;100.00;100523.66;5011954;28;19932;-77
2023/12/25 05:04:17;;;;;;;;;;;;;;;10.73;100.00;100540.31;4995099;28;20078;-77
2023/12/25 05:06:42;;;;;;;;;;;;;;;10.75;100.00;100524.56;5002567;28;19981;-77
2023/12/25 05:09:08;;;;;;;;;;;;;;;10.74;100.00;100530.69;4999766;28;19964;-76
2023/12/25 05:11:34;;;;;;;;;;;;;;;10.76;100.00;100523.66;5017042;28;19925;-77
2023/12/25 05:13:59;;;;;;;;;;;;;;;10.79;100.00;100528.84;4995806;28;19924;-77
2023/12/25 05:16:24;;;;;;;;;;;;;;;10.78;100.00;100526.25;4993483;28;19925;-76
2023/12/25 05:18:51;;;;;;;;;;;;;;;10.79;100.00;100530.59;5001720;28;19917;-78
2023/12/25 05:21:17;;;;;;;;;;;;;;;10.80;100.00;100527.09;5002648;28;19925;-77
2023/12/25 05:23:43;;;;;;;;;;;;;;;10.79;100.00;100522.72;5013119;28;19925;-77
2023/12/25 05:26:09;;;;;;;;;;;;;;;10.80;100.00;100516.59;4995936;28;20355;-76
2023/12/25 05:28:34;;;;;;;;;;;;;;;10.79;100.00;100520.09;5008157;28;19925;-77
2023/12/25 05:30:59;;;;;;;;;;;;;;;10.79;100.00;100522.72;4986777;28;19925;-76
2023/12/25 05:33:25;;;;;;;;;;;;;;;10.73;100.00;100521.97;5005560;28;20415;-77
2023/12/25 05:35:51;;;;;;;;;;;;;;;10.71;100.00;100523.72;4989639;28;20360;-77
2023/12/25 05:38:17;;;;;;;;;;;;;;;10.66;100.00;100514.22;5017191;28;19924;-76
2023/12/25 05:40:43;;;;;;;;;;;;;;;10.66;100.00;100517.72;5002166;28;20012;-76
2023/12/25 05:43:10;;;;;;;;;;;;;;;10.65;100.00;100529.09;5026272;28;20013;-77
2023/12/25 05:45:37;;;;;;;;;;;;;;;10.64;100.00;100529.13;4995609;28;20004;-77
2023/12/25 05:48:02;;;;;;;;;;;;;;;10.61;100.00;100521.31;5004220;28;19933;-78
2023/12/25 05:50:27;;;;;;;;;;;;;;;10.59;100.00;100518.72;5005961;28;19925;-77
2023/12/25 05:52:52;;;;;;;;;;;;;;;10.57;100.00;100531.84;5017603;28;19968;-78
2023/12/25 05:55:18;;;;;;;;;;;;;;;10.56;100.00;100529.25;5011758;28;20330;-77
2023/12/25 05:57:43;;;;;;;;;;;;;;;10.60;100.00;100525.66;5020876;28;19991;-77
2023/12/25 06:00:09;;;;;;;;;;;;;;;10.58;100.00;100527.47;5010772;28;20234;-77
2023/12/25 06:02:37;;;;;;;;;;;;;;;10.56;100.00;100534.50;4997383;28;19929;-77
2023/12/25 06:05:02;;;;;;;;;;;;;;;10.58;100.00;100533.56;5012675;28;20225;-77
2023/12/25 06:07:28;;;;;;;;;;;;;;;10.63;100.00;100533.50;5022284;28;19920;-77
2023/12/25 06:09:53;;;;;;;;;;;;;;;10.57;100.00;100533.56;4997365;28;19952;-77
2023/12/25 06:12:20;;;;;;;;;;;;;;;10.53;100.00;100529.28;5357206;22;19924;-76
2023/12/25 06:14:45;;;;;;;;;;;;;;;10.52;100.00;100527.56;5056064;28;19974;-78
2023/12/25 06:17:10;;;;;;;;;;;;;;;10.51;100.00;100531.06;5073055;28;19959;-77
2023/12/25 06:19:36;;;;;;;;;;;;;;;10.52;100.00;100535.44;5066504;28;20393;-77
2023/12/25 06:22:01;;;;;;;;;;;;;;;10.50;100.00;100534.56;5051390;28;19927;-77
2023/12/25 06:24:27;;;;;;;;;;;;;;;10.58;100.00;100532.69;5061845;28;19948;-77
2023/12/25 06:26:52;;;;;;;;;;;;;;;10.53;100.00;100529.28;5070338;28;19917;-78
2023/12/25 06:29:18;;;;;;;;;;;;;;;10.53;100.00;100534.53;5064410;28;19928;-76
2023/12/25 06:31:48;;;;;;;;;;;;;;;10.53;100.00;100518.78;5063934;28;19921;-77
2023/12/25 06:34:13;;;;;;;;;;;;;;;10.53;100.00;100524.03;5075555;28;19939;-76
2023/12/25 06:36:38;;;;;;;;;;;;;;;10.52;100.00;100533.66;5063751;28;19963;-77
2023/12/25 06:39:04;;;;;;;;;;;;;;;10.55;100.00;100540.63;5074025;28;19916;-77
2023/12/25 06:41:29;;;;;;;;;;;;;;;10.53;100.00;100537.13;5056401;28;20027;-77
2023/12/25 06:43:54;;;;;;;;;;;;;;;10.57;100.00;100531.84;5049418;28;19925;-77
2023/12/25 06:46:21;;;;;;;;;;;;;;;10.58;100.00;100527.47;5273630;22;19971;-77
2023/12/25 06:48:46;;;;;;;;;;;;;;;10.55;100.00;100519.66;5072191;28;20020;-77
2023/12/25 06:51:11;;;;;;;;;;;;;;;10.56;100.00;100524.88;5066579;28;20389;-77
2023/12/25 06:53:38;;;;;;;;;;;;;;;10.60;100.00;100514.31;5125897;22;20397;-77
2023/12/25 06:56:05;;;;;;;;;;;;;;;10.55;100.00;100548.47;5074673;28;20291;-78
2023/12/25 06:58:30;;;;;;;;;;;;;;;10.62;100.00;100576.31;5053885;28;19991;-76
2023/12/25 07:00:55;;;;;;;;;;;;;;;10.69;100.00;100580.56;5038538;28;19962;-77
2023/12/25 07:03:21;;;;;;;;;;;;;;;10.75;100.00;100587.47;5033211;28;20288;-79
2023/12/25 07:05:48;;;;;;;;;;;;;;;10.36;100.00;100595.91;5054315;28;20380;-78
2023/12/25 07:10:43;;;;;;;;;;;;;;;10.02;100.00;100585.88;5071613;28;20027;-81
2023/12/25 07:13:08;;;;;;;;;;;;;;;9.84;100.00;100583.50;5051159;28;20384;-82
2023/12/25 07:15:36;;;;;;;;;;;;;;;9.81;100.00;100596.63;5044028;28;19920;-79
2023/12/25 07:18:02;;;;;;;;;;;;;;;9.73;100.00;100603.72;5069948;28;19913;-81
2023/12/25 07:20:27;;;;;;;;;;;;;;;9.59;100.00;100591.66;5031648;28;19979;-80
2023/12/25 07:22:52;;;;;;;;;;;;;;;9.58;100.00;100595.16;5055428;28;19921;-81
2023/12/25 07:25:18;;;;;;;;;;;;;;;9.52;100.00;100609.19;5071931;28;19948;-84
2023/12/25 07:27:43;;;;;;;;;;;;;;;9.53;100.00;100603.06;5040637;28;20336;-81
2023/12/25 07:30:09;;;;;;;;;;;;;;;9.45;100.00;100606.63;5038109;28;20015;-83
2023/12/25 07:32:34;;;;;;;;;;;;;;;9.42;100.00;100612.75;5038224;28;19924;-81
2023/12/25 07:34:59;;;;;;;;;;;;;;;9.39;100.00;100606.72;5051895;28;19928;-83
2023/12/25 07:37:24;;;;;;;;;;;;;;;9.32;100.00;100613.75;5055403;28;20273;-82
2023/12/25 07:39:50;;;;;;;;;;;;;;;9.35;100.00;100614.59;5063590;28;19916;-83
2023/12/25 07:42:17;;;;;;;;;;;;;;;9.34;100.00;100612.84;5043751;28;19920;-81
2023/12/25 07:44:43;;;;;;;;;;;;;;;9.27;100.00;100612.94;5023127;28;20398;-82
2023/12/25 07:47:08;;;;;;;;;;;;;;;9.22;100.00;100610.34;5029633;28;19921;-80
2023/12/25 07:49:33;;;;;;;;;;;;;;;9.26;100.00;100613.81;5057073;28;19927;-83
2023/12/25 07:52:00;;;;;;;;;;;;;;;9.24;100.00;100626.03;5047243;28;19927;-81
2023/12/25 07:54:25;;;;;;;;;;;;;;;9.22;100.00;100622.56;5053657;28;19970;-81
2023/12/25 07:56:50;;;;;;;;;;;;;;;9.18;100.00;100626.97;5055043;28;19924;-82
2023/12/25 07:59:18;;;;;;;;;;;;;;;9.17;100.00;100630.47;5053453;28;19974;-82
2023/12/25 08:01:44;;;;;;;;;;;;;;;9.17;100.00;100638.31;5071032;28;19976;-81
2023/12/25 08:04:09;;;;;;;;;;;;;;;9.18;100.00;100648.75;5034054;28;19973;-83
2023/12/25 08:06:35;;;;;;;;;;;;;;;9.26;100.00;100630.34;5037948;28;20007;-81
2023/12/25 08:09:00;;;;;;;;;;;;;;;9.32;100.00;100635.56;5056244;28;20042;-79
2023/12/25 08:11:25;;;;;;;;;;;;;;;9.26;100.00;100632.97;5044157;28;19966;-80
2023/12/25 08:13:50;;;;;;;;;;;;;;;9.19;100.00;100650.50;5061379;28;19928;-81
2023/12/25 08:16:16;;;;;;;;;;;;;;;9.19;100.00;100649.59;5051355;28;19929;-81
2023/12/25 08:18:41;;;;;;;;;;;;;;;9.17;100.00;100654.00;5045641;28;19921;-81
2023/12/25 08:21:07;;;;;;;;;;;;;;;9.18;100.00;100653.13;5055115;28;19916;-82
2023/12/25 08:23:34;;;;;;;;;;;;;;;9.17;100.00;100664.44;5039741;28;20021;-80
2023/12/25 08:26:00;;;;;;;;;;;;;;;9.18;100.00;100663.56;5037876;28;20025;-80
2023/12/25 08:28:26;;;;;;;;;;;;;;;9.18;100.00;100669.66;5037168;28;20400;-80
2023/12/25 08:30:51;;;;;;;;;;;;;;;9.18;100.00;100664.44;5051327;28;20014;-82
2023/12/25 08:33:17;;;;;;;;;;;;;;;9.20;100.00;100664.41;5042151;28;19921;-81
2023/12/25 08:35:43;;;;;;;;;;;;;;;9.19;100.00;100667.91;5038909;28;19970;-81
2023/12/25 08:38:11;;;;;;;;;;;;;;;9.21;100.00;100665.28;5036936;28;19920;-79
2023/12/25 08:40:36;;;;;;;;;;;;;;;9.19;100.00;100665.28;5057480;28;19956;-81
2023/12/25 08:43:02;;;;;;;;;;;;;;;9.17;100.00;100667.91;5039933;28;20321;-80
2023/12/25 08:45:27;;;;;;;;;;;;;;;9.19;100.00;100660.94;5045960;28;20291;-81
2023/12/25 08:47:52;;;;;;;;;;;;;;;9.19;100.00;100673.13;5054987;28;19916;-81
2023/12/25 08:50:18;;;;;;;;;;;;;;;9.21;100.00;100667.88;5038658;28;20256;-82
2023/12/25 08:52:44;;;;;;;;;;;;;;;9.23;100.00;100671.38;5055330;28;20283;-79
2023/12/25 08:55:09;;;;;;;;;;;;;;;9.25;100.00;100680.94;5034544;28;19971;-80
2023/12/25 08:57:35;;;;;;;;;;;;;;;9.25;100.00;100680.06;5055005;28;19960;-81
2023/12/25 09:00:01;;;;;;;;;;;;;;;9.26;100.00;100682.66;5057185;28;19973;-82
2023/12/25 09:02:26;;;;;;;;;;;;;;;9.26;100.00;100680.03;5060759;28;19921;-79
2023/12/25 09:04:52;;;;;;;;;;;;;;;9.27;100.00;100671.31;5040207;28;19920;-77
2023/12/25 09:07:17;;;;;;;;;;;;;;;9.28;100.00;100677.41;5054595;28;19950;-81
2023/12/25 09:09:43;;;;;;;;;;;;;;;9.29;100.00;100674.78;5057179;28;19924;-79
2023/12/25 09:12:10;;;;;;;;;;;;;;;9.31;100.00;100665.19;5065326;28;20383;-80
2023/12/25 09:14:36;;;;;;;;;;;;;;;9.33;100.00;100678.25;5065601;28;19920;-80
2023/12/25 09:17:01;;;;;;;;;;;;;;;9.33;100.00;100692.19;5056617;28;19923;-78
2023/12/25 09:19:29;;;;;;;;;;;;;;;9.35;100.00;100692.16;5055658;28;19923;-79
2023/12/25 09:21:54;;;;;;;;;;;;;;;9.36;100.00;100697.38;5061698;28;20062;-78
2023/12/25 09:24:20;;;;;;;;;;;;;;;9.35;100.00;100706.13;5059095;28;20007;-79
2023/12/25 09:26:46;;;;;;;;;;;;;;;9.38;100.00;100717.44;5091554;28;19923;-80
2023/12/25 09:29:12;;;;;;;;;;;;;;;9.37;100.00;100719.19;5056199;28;19919;-79
2023/12/25 09:31:37;;;;;;;;;;;;;;;9.38;100.00;100739.22;5072523;28;19923;-81
2023/12/25 09:34:03;;;;;;;;;;;;;;;9.36;100.00;100741.84;5055896;28;19977;-79
2023/12/25 09:36:29;;;;;;;;;;;;;;;9.38;100.00;100759.28;5056877;28;19913;-80
2023/12/25 09:38:54;;;;;;;;;;;;;;;9.36;100.00;100752.28;5043711;28;19947;-81
2023/12/25 09:41:20;;;;;;;;;;;;;;;9.36;100.00;100738.38;5056803;28;20380;-80
2023/12/25 09:43:46;;;;;;;;;;;;;;;9.45;100.00;100745.25;5036634;28;19970;-81
2023/12/25 09:46:11;;;;;;;;;;;;;;;9.46;100.00;100737.41;5036561;28;19929;-78
2023/12/25 09:48:38;;;;;;;;;;;;;;;9.43;100.00;100745.28;5037350;28;19917;-79
2023/12/25 09:51:05;;;;;;;;;;;;;;;9.46;100.00;100736.53;5054674;28;20007;-78
2023/12/25 09:53:31;;;;;;;;;;;;;;;9.45;100.00;100733.06;5064339;28;19924;-79
2023/12/25 09:55:58;;;;;;;;;;;;;;;9.46;100.00;100736.53;5055057;28;19917;-80
2023/12/25 09:58:24;;;;;;;;;;;;;;;9.47;100.00;100722.59;5073337;28;19923;-80
2023/12/25 10:00:50;;;;;;;;;;;;;;;9.50;100.00;100726.03;5053889;28;19924;-78
2023/12/25 10:03:18;;;;;;;;;;;;;;;9.49;100.00;100731.28;5053707;28;19928;-78
2023/12/25 10:05:43;;;;;;;;;;;;;;;9.49;100.00;100721.66;5053351;28;20269;-80
2023/12/25 10:08:09;;;;;;;;;;;;;;;9.50;100.00;100723.41;5059945;28;19927;-77
2023/12/25 10:10:37;;;;;;;;;;;;;;;9.49;100.00;100721.66;5039480;28;19925;-77
2023/12/25 10:13:04;;;;;;;;;;;;;;;9.50;100.00;100722.56;5057409;28;19999;-77
2023/12/25 10:15:29;;;;;;;;;;;;;;;9.53;100.00;100730.38;5042504;28;19917;-77
2023/12/25 10:18:04;;;;;;;;;;;;;;;9.53;100.00;100738.22;5040082;28;19924;-76
2023/12/25 10:20:30;;;;;;;;;;;;;;;9.51;100.00;100745.19;5043099;28;20384;-78
2023/12/25 10:22:56;;;;;;;;;;;;;;;9.50;100.00;100738.25;5055440;28;19927;-77
2023/12/25 10:25:24;;;;;;;;;;;;;;;9.48;100.00;100737.38;5036010;28;19928;-79
2023/12/25 10:27:52;;;;;;;;;;;;;;;9.46;100.00;100731.31;5032687;28;19919;-79
2023/12/25 10:30:18;;;;;;;;;;;;;;;9.45;100.00;100745.25;5048160;28;19940;-80
2023/12/25 10:32:48;;;;;;;;;;;;;;;9.45;100.00;100734.78;5060338;28;20303;-80
2023/12/25 10:35:14;;;;;;;;;;;;;;;9.45;100.00;100730.44;5034253;28;20357;-79
2023/12/25 10:37:42;;;;;;;;;;;;;;;9.44;100.00;100736.56;5037288;28;19921;-79
2023/12/25 10:40:20;;;;;;;;;;;;;;;9.46;100.00;100749.63;5053044;28;19917;-79
2023/12/25 10:42:50;;;;;;;;;;;;;;;9.43;100.00;100744.41;5029598;28;20361;-77
2023/12/25 10:45:21;;;;;;;;;;;;;;;9.58;100.00;100746.03;5070000;28;20210;-78
2023/12/25 10:47:48;;;;;;;;;;;;;;;9.46;100.00;100744.38;5037697;28;20032;-80
2023/12/25 10:50:14;;;;;;;;;;;;;;;9.43;100.00;100733.97;5038053;28;19929;-78
2023/12/25 10:52:41;;;;;;;;;;;;;;;9.42;100.00;100726.97;5057054;28;19919;-77
2023/12/25 10:55:07;;;;;;;;;;;;;;;9.41;100.00;100735.69;5056350;28;20410;-78
2023/12/25 10:57:37;;;;;;;;;;;;;;;9.38;100.00;100734.00;5030092;28;20008;-78
2023/12/25 11:00:04;;;;;;;;;;;;;;;9.36;100.00;100733.13;5056664;28;19913;-75
2023/12/25 11:02:35;;;;;;;;;;;;;;;9.35;100.00;100734.00;5056471;28;19943;-77
2023/12/25 11:05:01;;;;;;;;;;;;;;;9.32;100.00;100737.53;5056100;28;20330;-77
2023/12/25 11:07:27;;;;;;;;;;;;;;;9.42;100.00;100734.81;5042340;28;19917;-77
2023/12/25 11:09:54;;;;;;;;;;;;;;;9.42;100.00;100726.97;5034465;28;20388;-78
2023/12/25 11:12:20;;;;;;;;;;;;;;;9.46;100.00;100739.16;5036324;28;19920;-76
2023/12/25 11:14:45;;;;;;;;;;;;;;;9.39;100.00;100756.63;5036311;28;19917;-78
2023/12/25 11:17:13;;;;;;;;;;;;;;;9.40;100.00;100752.28;5048283;28;19928;-77
2023/12/25 11:19:39;;;;;;;;;;;;;;;9.35;100.00;100755.81;5036898;28;19927;-78
2023/12/25 11:22:30;;;;;;;;;;;;;;;9.32;100.00;100749.72;5032299;28;19921;-78
2023/12/25 11:24:58;;;;;;;;;;;;;;;9.29;100.00;100745.38;5054526;28;19928;-78
2023/12/25 11:27:27;;;;;;;;;;;;;;;9.29;100.00;100745.38;5051697;28;19916;-77
2023/12/25 11:30:01;;;;;;;;;;;;;;;9.33;100.00;100735.78;5054282;28;19916;-79
2023/12/25 11:32:27;;;;;;;;;;;;;;;9.36;100.00;100741.84;5063109;28;20015;-76
2023/12/25 11:34:56;;;;;;;;;;;;;;;9.42;100.00;100734.81;5066736;28;19920;-76
2023/12/25 11:37:21;;;;;;;;;;;;;;;9.45;100.00;100735.69;5072909;28;19916;-77
2023/12/25 11:40:14;;;;;;;;;;;;;;;9.48;100.00;100745.22;5054866;28;19966;-78
2023/12/25 11:42:41;;;;;;;;;;;;;;;9.49;100.00;100752.19;5068868;28;20338;-77
2023/12/25 11:45:09;;;;;;;;;;;;;;;9.49;100.00;100749.59;5052996;28;19929;-77
2023/12/25 11:47:39;;;;;;;;;;;;;;;9.50;100.00;100743.47;5050723;28;19924;-76
2023/12/25 11:50:05;;;;;;;;;;;;;;;9.50;100.00;100748.72;5072490;28;19916;-77
2023/12/25 11:52:43;;;;;;;;;;;;;;;9.47;100.00;100749.59;5045044;28;19921;-76
2023/12/25 11:55:29;;;;;;;;;;;;;;;9.46;100.00;100752.25;5069487;28;20387;-76
2023/12/25 11:57:55;;;;;;;;;;;;;;;9.43;100.00;100750.50;5085872;28;19917;-76
2023/12/25 12:00:21;;;;;;;;;;;;;;;9.43;100.00;100741.81;5053599;28;20411;-76
2023/12/25 12:02:47;;;;;;;;;;;;;;;9.45;100.00;100750.50;5071367;28;19917;-80
2023/12/25 12:05:13;;;;;;;;;;;;;;;9.43;100.00;100742.66;5069187;28;20391;-79
2023/12/25 12:07:38;;;;;;;;;;;;;;;9.44;100.00;100741.78;5040127;28;20399;-79
2023/12/25 12:10:04;;;;;;;;;;;;;;;9.42;100.00;100740.91;5090057;28;19927;-79
2023/12/25 12:12:30;;;;;;;;;;;;;;;9.43;100.00;100749.66;5048835;28;20329;-79
2023/12/25 12:14:56;;;;;;;;;;;;;;;9.44;100.00;100752.25;5055240;28;19996;-79
2023/12/25 12:17:21;;;;;;;;;;;;;;;9.44;100.00;100743.50;5054256;28;19921;-79
2023/12/25 12:19:47;;;;;;;;;;;;;;;9.45;100.00;100735.69;5054336;28;19928;-77
2023/12/25 12:22:13;;;;;;;;;;;;;;;9.46;100.00;100736.53;5048362;28;19928;-80
2023/12/25 12:24:38;;;;;;;;;;;;;;;9.47;100.00;100743.50;5044595;28;19991;-79
2023/12/25 12:27:04;;;;;;;;;;;;;;;9.47;100.00;100744.38;5051534;28;19971;-78